Time;durP1;ratioP1;P1;durP2;ratioP2;P2;SDS_P1;SDS_P2;PMS_P1;PMS_P2;Temp;Humidity;BMP_temperature;BMP_pressure;BME280_temperature;BME280_humidity;BME280_pressure;Samples;Min_cycle;Max_cycle;Signal;HPM_P1;HPM_P2
2021/03/05 00:01:48;;;;;;;1.25;0.55;;;;;;;;;;5049502;28;20200;-74
2021/03/05 00:04:14;;;;;;;1.13;1.10;;;;;;;;;;5048461;28;20172;-73
2021/03/05 00:06:40;;;;;;;0.50;0.50;;;;;;;;;;5049849;28;20192;-75
2021/03/05 00:09:06;;;;;;;0.20;0.20;;;;;;;;;;5049418;28;20176;-74
2021/03/05 00:11:32;;;;;;;0.25;0.25;;;;;;;;;;5049490;28;20201;-74
2021/03/05 00:13:59;;;;;;;0.85;0.73;;;;;;;;;;5049598;28;20172;-75
2021/03/05 00:16:25;;;;;;;0.10;0.10;;;;;;;;;;5049609;28;20172;-74
2021/03/05 00:18:51;;;;;;;0.60;0.60;;;;;;;;;;5048205;28;20276;-73
2021/03/05 00:21:17;;;;;;;0.55;0.55;;;;;;;;;;5048253;28;20203;-75
2021/03/05 00:23:43;;;;;;;0.50;0.50;;;;;;;;;;5049501;28;20171;-73
2021/03/05 00:26:10;;;;;;;1.40;1.38;;;;;;;;;;5049512;28;20162;-74
2021/03/05 00:28:36;;;;;;;0.43;0.43;;;;;;;;;;5049425;28;20170;-75
2021/03/05 00:31:02;;;;;;;0.10;0.10;;;;;;;;;;5048558;28;20176;-74
2021/03/05 00:33:28;;;;;;;1.20;1.13;;;;;;;;;;5048025;28;20208;-74
2021/03/05 00:35:55;;;;;;;0.57;0.57;;;;;;;;;;5049300;28;20181;-75
2021/03/05 00:38:22;;;;;;;1.45;1.35;;;;;;;;;;5048136;28;20755;-76
2021/03/05 00:40:49;;;;;;;0.10;0.10;;;;;;;;;;5049283;28;20543;-76
2021/03/05 00:43:15;;;;;;;2.75;1.85;;;;;;;;;;5049349;28;20175;-75
2021/03/05 00:45:41;;;;;;;2.03;1.35;;;;;;;;;;5049300;28;20642;-75
2021/03/05 00:48:07;;;;;;;0.03;0.03;;;;;;;;;;5049007;28;20236;-75
2021/03/05 00:50:34;;;;;;;0.73;0.73;;;;;;;;;;5048837;28;20225;-74
2021/03/05 00:53:00;;;;;;;0.13;0.13;;;;;;;;;;5047847;28;20207;-75
2021/03/05 00:55:26;;;;;;;0.40;0.40;;;;;;;;;;5049217;28;20249;-74
2021/03/05 00:57:52;;;;;;;0.32;0.32;;;;;;;;;;5049078;28;20211;-75
2021/03/05 01:00:19;;;;;;;0.25;0.25;;;;;;;;;;5049100;28;20164;-75
2021/03/05 01:02:45;;;;;;;1.17;1.17;;;;;;;;;;5049030;28;20197;-75
2021/03/05 01:05:11;;;;;;;0.10;0.10;;;;;;;;;;5049042;28;20173;-74
2021/03/05 01:07:38;;;;;;;0.20;0.20;;;;;;;;;;5049056;28;20157;-74
2021/03/05 01:10:05;;;;;;;0.90;0.85;;;;;;;;;;5048977;28;20192;-74
2021/03/05 01:12:32;;;;;;;0.20;0.20;;;;;;;;;;5047617;28;20194;-74
2021/03/05 01:14:58;;;;;;;1.42;1.15;;;;;;;;;;5047894;28;20192;-74
2021/03/05 01:17:24;;;;;;;0.43;0.43;;;;;;;;;;5047677;28;20587;-75
2021/03/05 01:19:51;;;;;;;0.10;0.10;;;;;;;;;;5048898;28;20165;-74
2021/03/05 01:22:17;;;;;;;1.67;1.58;;;;;;;;;;5049478;28;20208;-75
2021/03/05 01:24:43;;;;;;;0.32;0.32;;;;;;;;;;5051626;28;20181;-74
2021/03/05 01:27:09;;;;;;;0.60;0.60;;;;;;;;;;5051482;28;20171;-73
2021/03/05 01:29:36;;;;;;;1.15;1.15;;;;;;;;;;5052239;28;20165;-76
2021/03/05 01:32:03;;;;;;;0.30;0.30;;;;;;;;;;5051345;28;20200;-75
2021/03/05 01:34:29;;;;;;;0.93;0.93;;;;;;;;;;5051371;28;20304;-76
2021/03/05 01:36:55;;;;;;;0.63;0.63;;;;;;;;;;5052573;28;20224;-75
2021/03/05 01:39:22;;;;;;;0.45;0.45;;;;;;;;;;5052421;28;20208;-74
2021/03/05 01:41:48;;;;;;;1.33;1.15;;;;;;;;;;5051131;28;20224;-75
2021/03/05 01:44:15;;;;;;;0.73;0.40;;;;;;;;;;5052373;28;20173;-74
2021/03/05 01:46:41;;;;;;;0.35;0.35;;;;;;;;;;5051180;28;20170;-75
2021/03/05 01:49:08;;;;;;;0.05;0.05;;;;;;;;;;5052174;28;20620;-77
2021/03/05 01:51:36;;;;;;;0.20;0.20;;;;;;;;;;5050969;28;20197;-75
2021/03/05 01:54:03;;;;;;;0.70;0.70;;;;;;;;;;5052313;28;20165;-74
2021/03/05 01:56:29;;;;;;;0.38;0.38;;;;;;;;;;5050866;28;20189;-77
2021/03/05 01:58:56;;;;;;;0.20;0.20;;;;;;;;;;5052075;28;20204;-75
2021/03/05 02:01:23;;;;;;;0.70;0.70;;;;;;;;;;5052089;28;20220;-74
2021/03/05 02:03:49;;;;;;;0.77;0.75;;;;;;;;;;5052099;28;20252;-75
2021/03/05 02:06:16;;;;;;;0.30;0.30;;;;;;;;;;5052027;28;20162;-74
2021/03/05 02:08:43;;;;;;;0.90;0.90;;;;;;;;;;5050658;28;20185;-74
2021/03/05 02:11:09;;;;;;;0.20;0.20;;;;;;;;;;5051880;28;20181;-74
2021/03/05 02:13:35;;;;;;;0.17;0.17;;;;;;;;;;5051930;28;20196;-75
2021/03/05 02:16:09;;;;;;;0.30;0.30;;;;;;;;;;5051852;28;20161;-73
2021/03/05 02:18:40;;;;;;;0.30;0.30;;;;;;;;;;5050563;28;20302;-74
2021/03/05 02:21:45;;;;;;;0.73;0.73;;;;;;;;;;5051677;28;20165;-74
2021/03/05 02:24:30;;;;;;;3.10;0.75;;;;;;;;;;4971107;29;20197;-74
2021/03/05 02:27:14;;;;;;;1.17;1.08;;;;;;;;;;4971234;29;20207;-75
2021/03/05 02:29:59;;;;;;;9.23;1.23;;;;;;;;;;5029504;28;20238;-75
2021/03/05 02:32:57;;;;;;;0.43;0.43;;;;;;;;;;5049663;28;20193;-75
2021/03/05 02:35:26;;;;;;;0.50;0.50;;;;;;;;;;4970972;29;20195;-75
2021/03/05 02:37:53;;;;;;;1.25;1.15;;;;;;;;;;4970984;29;20220;-75
2021/03/05 02:40:29;;;;;;;0.25;0.25;;;;;;;;;;4971068;29;20175;-75
2021/03/05 02:42:59;;;;;;;0.47;0.47;;;;;;;;;;4970985;29;20199;-75
2021/03/05 02:45:28;;;;;;;0.47;0.47;;;;;;;;;;4970909;29;20199;-75
2021/03/05 02:48:06;;;;;;;0.17;0.17;;;;;;;;;;4970714;29;20234;-75
2021/03/05 02:50:34;;;;;;;0.17;0.17;;;;;;;;;;4970751;29;20186;-75
2021/03/05 02:53:04;;;;;;;0.17;0.17;;;;;;;;;;4970735;29;20214;-75
2021/03/05 02:55:32;;;;;;;1.65;1.55;;;;;;;;;;4970735;29;20212;-75
2021/03/05 02:57:59;;;;;;;1.38;1.27;;;;;;;;;;4970691;29;20219;-75
2021/03/05 03:00:27;;;;;;;0.20;0.20;;;;;;;;;;4970738;29;20188;-75
2021/03/05 03:02:56;;;;;;;0.50;0.50;;;;;;;;;;4970408;29;20271;-75
2021/03/05 03:05:23;;;;;;;1.70;1.60;;;;;;;;;;4970609;29;20188;-75
2021/03/05 03:07:50;;;;;;;1.25;1.17;;;;;;;;;;4970611;29;20169;-75
2021/03/05 03:10:17;;;;;;;1.42;1.33;;;;;;;;;;4987208;28;20193;-75
2021/03/05 03:12:43;;;;;;;4.55;1.75;;;;;;;;;;5050581;28;20284;-75
2021/03/05 03:15:11;;;;;;;0.40;0.40;;;;;;;;;;5050773;28;20169;-75
2021/03/05 03:17:39;;;;;;;1.02;0.85;;;;;;;;;;5050713;28;20185;-75
2021/03/05 03:20:06;;;;;;;0.20;0.20;;;;;;;;;;5050711;28;20161;-75
2021/03/05 03:22:32;;;;;;;0.10;0.10;;;;;;;;;;5050575;28;20189;-75
2021/03/05 03:24:59;;;;;;;0.85;0.75;;;;;;;;;;5049265;28;20173;-75
2021/03/05 03:27:25;;;;;;;0.60;0.60;;;;;;;;;;5050583;28;20162;-75
2021/03/05 03:29:51;;;;;;;0.43;0.43;;;;;;;;;;5050527;28;20165;-75
2021/03/05 03:32:17;;;;;;;0.90;0.63;;;;;;;;;;5050161;28;20197;-75
2021/03/05 03:34:44;;;;;;;2.65;0.82;;;;;;;;;;5050235;28;20241;-75
2021/03/05 03:37:11;;;;;;;4.53;1.30;;;;;;;;;;5049943;28;20200;-75
2021/03/05 03:39:38;;;;;;;0.43;0.43;;;;;;;;;;5050194;28;20246;-75
2021/03/05 03:42:04;;;;;;;17.55;0.65;;;;;;;;;;5050125;28;20325;-75
2021/03/05 03:44:31;;;;;;;0.10;0.10;;;;;;;;;;5047837;28;20169;-75
2021/03/05 03:46:57;;;;;;;0.30;0.30;;;;;;;;;;5049833;28;20177;-75
2021/03/05 03:49:36;;;;;;;0.90;0.90;;;;;;;;;;5049922;28;20229;-75
2021/03/05 03:52:21;;;;;;;1.15;1.05;;;;;;;;;;5048627;28;20201;-75
2021/03/05 03:54:47;;;;;;;0.77;0.77;;;;;;;;;;5049581;28;20229;-75
2021/03/05 03:57:15;;;;;;;1.35;1.08;;;;;;;;;;5049802;28;20504;-75
2021/03/05 03:59:42;;;;;;;0.70;0.70;;;;;;;;;;5049639;28;20193;-73
2021/03/05 04:02:09;;;;;;;3.03;1.15;;;;;;;;;;5049668;28;20220;-76
2021/03/05 04:04:37;;;;;;;1.02;1.02;;;;;;;;;;5049826;28;20161;-76
2021/03/05 04:07:03;;;;;;;2.55;1.42;;;;;;;;;;5048371;28;20169;-75
2021/03/05 04:09:30;;;;;;;0.10;0.10;;;;;;;;;;5049381;28;20188;-75
2021/03/05 04:11:57;;;;;;;1.02;0.90;;;;;;;;;;5049621;28;20201;-75
2021/03/05 04:14:25;;;;;;;0.95;0.95;;;;;;;;;;5049534;28;20165;-74
2021/03/05 04:16:54;;;;;;;0.10;0.10;;;;;;;;;;5049604;28;20260;-75
2021/03/05 04:19:22;;;;;;;0.30;0.30;;;;;;;;;;5049359;28;20227;-75
2021/03/05 04:21:49;;;;;;;0.47;0.47;;;;;;;;;;5049390;28;20220;-75
2021/03/05 04:24:16;;;;;;;0.20;0.20;;;;;;;;;;5049579;28;20665;-75
2021/03/05 04:26:42;;;;;;;4.50;1.65;;;;;;;;;;5049207;28;20176;-75
2021/03/05 04:29:08;;;;;;;0.20;0.20;;;;;;;;;;5048073;28;20184;-75
2021/03/05 04:31:35;;;;;;;1.60;1.45;;;;;;;;;;5048060;28;20300;-75
2021/03/05 04:34:01;;;;;;;0.65;0.65;;;;;;;;;;5049240;28;20193;-74
2021/03/05 04:36:27;;;;;;;0.55;0.50;;;;;;;;;;5049341;28;20162;-75
2021/03/05 04:38:53;;;;;;;0.17;0.17;;;;;;;;;;5049009;28;20185;-74
2021/03/05 04:41:19;;;;;;;0.13;0.13;;;;;;;;;;5049157;28;20216;-75
2021/03/05 04:43:46;;;;;;;0.10;0.10;;;;;;;;;;5047892;28;20654;-74
2021/03/05 04:46:12;;;;;;;2.08;0.90;;;;;;;;;;5049045;28;20165;-74
2021/03/05 04:48:38;;;;;;;3.17;2.97;;;;;;;;;;5047688;28;20236;-74
2021/03/05 04:51:04;;;;;;;2.60;1.77;;;;;;;;;;5047556;28;20184;-74
2021/03/05 04:53:31;;;;;;;1.27;1.25;;;;;;;;;;5048786;28;20161;-75
2021/03/05 04:55:57;;;;;;;2.05;1.88;;;;;;;;;;5050097;28;20157;-75
2021/03/05 04:58:23;;;;;;;0.63;0.63;;;;;;;;;;5052476;28;20215;-74
2021/03/05 05:00:49;;;;;;;0.73;0.73;;;;;;;;;;5051908;28;20173;-74
2021/03/05 05:03:15;;;;;;;1.00;0.70;;;;;;;;;;5053036;28;20223;-74
2021/03/05 05:05:42;;;;;;;3.70;2.35;;;;;;;;;;5051963;28;20200;-74
2021/03/05 05:08:08;;;;;;;0.47;0.47;;;;;;;;;;5051652;28;20176;-75
2021/03/05 05:10:34;;;;;;;1.25;1.25;;;;;;;;;;5052912;28;20165;-75
2021/03/05 05:13:00;;;;;;;0.70;0.70;;;;;;;;;;5052832;28;20225;-75
2021/03/05 05:15:27;;;;;;;0.88;0.88;;;;;;;;;;5052703;28;20176;-74
2021/03/05 05:17:53;;;;;;;0.17;0.17;;;;;;;;;;5051496;28;20196;-75
2021/03/05 05:20:19;;;;;;;0.50;0.38;;;;;;;;;;5052714;28;20169;-75
2021/03/05 05:22:45;;;;;;;1.85;0.57;;;;;;;;;;5052267;28;20185;-74
2021/03/05 05:25:11;;;;;;;0.68;0.68;;;;;;;;;;5052730;28;20204;-75
2021/03/05 05:27:38;;;;;;;3.10;2.80;;;;;;;;;;5051135;28;20522;-75
2021/03/05 05:30:05;;;;;;;0.10;0.10;;;;;;;;;;5051307;28;20170;-74
2021/03/05 05:32:31;;;;;;;0.70;0.70;;;;;;;;;;5052214;28;20193;-75
2021/03/05 05:34:58;;;;;;;0.90;0.65;;;;;;;;;;5052523;28;20172;-75
2021/03/05 05:37:24;;;;;;;1.10;0.70;;;;;;;;;;5050884;28;20184;-75
2021/03/05 05:39:50;;;;;;;3.70;1.27;;;;;;;;;;5052158;28;20185;-75
2021/03/05 05:42:17;;;;;;;0.95;0.95;;;;;;;;;;5051973;28;20231;-75
2021/03/05 05:44:43;;;;;;;2.63;1.38;;;;;;;;;;5051927;28;20501;-75
2021/03/05 05:47:12;;;;;;;4.55;1.88;;;;;;;;;;5051884;28;20157;-74
2021/03/05 05:49:39;;;;;;;1.63;1.55;;;;;;;;;;5052072;28;20165;-75
2021/03/05 05:52:05;;;;;;;0.32;0.32;;;;;;;;;;5051619;28;20227;-75
2021/03/05 05:54:34;;;;;;;1.35;1.25;;;;;;;;;;5050518;28;20173;-75
2021/03/05 05:57:02;;;;;;;0.90;0.90;;;;;;;;;;5051833;28;20221;-75
2021/03/05 05:59:28;;;;;;;1.20;1.17;;;;;;;;;;5051633;28;20185;-75
2021/03/05 06:01:55;;;;;;;0.40;0.30;;;;;;;;;;5051708;28;20200;-75
2021/03/05 06:04:22;;;;;;;0.52;0.52;;;;;;;;;;5051796;28;20524;-75
2021/03/05 06:06:49;;;;;;;0.80;0.73;;;;;;;;;;5051579;28;20219;-75
2021/03/05 06:09:18;;;;;;;0.25;0.25;;;;;;;;;;5051231;28;20158;-75
2021/03/05 06:11:44;;;;;;;0.22;0.22;;;;;;;;;;5050517;28;20193;-75
2021/03/05 06:14:11;;;;;;;0.93;0.93;;;;;;;;;;5051628;28;20162;-75
2021/03/05 06:16:53;;;;;;;0.55;0.55;;;;;;;;;;5049017;28;20181;-75
2021/03/05 06:19:20;;;;;;;0.82;0.82;;;;;;;;;;5051453;28;20287;-75
2021/03/05 06:21:47;;;;;;;1.08;0.82;;;;;;;;;;5051308;28;20689;-75
2021/03/05 06:24:13;;;;;;;0.68;0.57;;;;;;;;;;5051352;28;20184;-75
2021/03/05 06:26:53;;;;;;;0.10;0.10;;;;;;;;;;5051300;28;20204;-75
2021/03/05 06:29:21;;;;;;;4.53;1.77;;;;;;;;;;5051324;28;20153;-76
2021/03/05 06:32:00;;;;;;;4.18;1.48;;;;;;;;;;5050882;28;20227;-75
2021/03/05 06:34:28;;;;;;;0.20;0.20;;;;;;;;;;5049913;28;20203;-75
2021/03/05 06:37:00;;;;;;;3.17;1.10;;;;;;;;;;5049869;28;20185;-75
2021/03/05 06:39:27;;;;;;;2.17;1.85;;;;;;;;;;5049179;28;20290;-76
2021/03/05 06:42:00;;;;;;;0.25;0.25;;;;;;;;;;5050952;28;20193;-75
2021/03/05 06:44:27;;;;;;;0.10;0.10;;;;;;;;;;5050575;28;20219;-76
2021/03/05 06:46:53;;;;;;;0.20;0.20;;;;;;;;;;5050936;28;20166;-75
2021/03/05 06:49:19;;;;;;;0.55;0.55;;;;;;;;;;5050836;28;20174;-76
2021/03/05 06:51:55;;;;;;;0.70;0.47;;;;;;;;;;5050864;28;20197;-75
2021/03/05 06:54:22;;;;;;;0.73;0.73;;;;;;;;;;5049433;28;20200;-75
2021/03/05 06:56:48;;;;;;;0.75;0.75;;;;;;;;;;5050956;28;20165;-76
2021/03/05 06:59:21;;;;;;;1.38;1.30;;;;;;;;;;5050494;28;20220;-75
2021/03/05 07:01:57;;;;;;;0.17;0.17;;;;;;;;;;5050701;28;20186;-75
2021/03/05 07:04:26;;;;;;;0.40;0.40;;;;;;;;;;5045521;28;20188;-75
2021/03/05 07:07:06;;;;;;;0.50;0.50;;;;;;;;;;5050024;28;20172;-75
2021/03/05 07:09:34;;;;;;;0.13;0.13;;;;;;;;;;5049097;28;20165;-75
2021/03/05 07:12:01;;;;;;;1.20;1.17;;;;;;;;;;5050115;28;20204;-75
2021/03/05 07:14:31;;;;;;;2.42;1.60;;;;;;;;;;5050162;28;20248;-75
2021/03/05 07:16:58;;;;;;;0.52;0.52;;;;;;;;;;5050020;28;20259;-75
2021/03/05 07:19:26;;;;;;;1.88;1.58;;;;;;;;;;5050270;28;20212;-75
2021/03/05 07:21:53;;;;;;;1.08;0.98;;;;;;;;;;5050537;28;20229;-75
2021/03/05 07:24:21;;;;;;;0.70;0.70;;;;;;;;;;5048963;28;20257;-75
2021/03/05 07:26:56;;;;;;;0.30;0.30;;;;;;;;;;5049880;28;20212;-74
2021/03/05 07:29:30;;;;;;;1.65;1.55;;;;;;;;;;5049502;28;20204;-75
2021/03/05 07:32:04;;;;;;;1.25;0.98;;;;;;;;;;5049535;28;20242;-74
2021/03/05 07:34:31;;;;;;;0.45;0.45;;;;;;;;;;5050161;28;20161;-74
2021/03/05 07:36:58;;;;;;;0.30;0.30;;;;;;;;;;5049996;28;20168;-74
2021/03/05 07:39:30;;;;;;;0.35;0.35;;;;;;;;;;5048171;28;20211;-75
2021/03/05 07:41:57;;;;;;;5.55;1.67;;;;;;;;;;5048849;28;20207;-75
2021/03/05 07:44:26;;;;;;;1.40;1.30;;;;;;;;;;5048599;28;20268;-76
2021/03/05 07:46:54;;;;;;;0.60;0.38;;;;;;;;;;5049424;28;20162;-76
2021/03/05 07:49:25;;;;;;;0.50;0.50;;;;;;;;;;5048677;28;20590;-76
2021/03/05 07:51:52;;;;;;;1.15;1.15;;;;;;;;;;5049041;28;20200;-76
2021/03/05 07:54:38;;;;;;;5.75;1.92;;;;;;;;;;5048916;28;20158;-76
2021/03/05 07:57:05;;;;;;;0.50;0.50;;;;;;;;;;5049020;28;20280;-75
2021/03/05 07:59:40;;;;;;;0.40;0.38;;;;;;;;;;5048809;28;20201;-76
2021/03/05 08:02:07;;;;;;;0.40;0.40;;;;;;;;;;5048905;28;20161;-76
2021/03/05 08:04:49;;;;;;;0.45;0.45;;;;;;;;;;5049407;28;20173;-75
2021/03/05 08:07:18;;;;;;;2.38;1.17;;;;;;;;;;5049604;28;20189;-75
2021/03/05 08:09:45;;;;;;;4.60;1.75;;;;;;;;;;5049499;28;20213;-75
2021/03/05 08:12:45;;;;;;;1.27;1.17;;;;;;;;;;5049509;28;20220;-75
2021/03/05 08:15:11;;;;;;;0.32;0.32;;;;;;;;;;5048292;28;20240;-75
2021/03/05 08:17:40;;;;;;;1.13;0.88;;;;;;;;;;5049451;28;20165;-76
2021/03/05 08:20:07;;;;;;;1.13;0.77;;;;;;;;;;5047869;28;20177;-75
2021/03/05 08:22:34;;;;;;;0.65;0.65;;;;;;;;;;5047955;28;20173;-74
2021/03/05 08:25:19;;;;;;;6.88;3.13;;;;;;;;;;5049444;28;20168;-75
2021/03/05 08:27:47;;;;;;;1.05;1.00;;;;;;;;;;5049262;28;20197;-75
2021/03/05 08:30:13;;;;;;;2.10;1.90;;;;;;;;;;5042967;28;20251;-75
2021/03/05 08:32:45;;;;;;;1.08;1.08;;;;;;;;;;5047227;28;20671;-75
2021/03/05 08:35:13;;;;;;;0.73;0.73;;;;;;;;;;5048416;28;20165;-75
2021/03/05 08:37:46;;;;;;;3.72;0.75;;;;;;;;;;5048863;28;20157;-75
2021/03/05 08:40:13;;;;;;;1.73;1.00;;;;;;;;;;5047172;28;20188;-75
2021/03/05 08:42:40;;;;;;;1.95;1.30;;;;;;;;;;5048693;28;20149;-75
2021/03/05 08:45:28;;;;;;;0.55;0.47;;;;;;;;;;5047945;28;20162;-75
2021/03/05 08:47:56;;;;;;;1.40;1.33;;;;;;;;;;5048419;28;20228;-75
2021/03/05 08:50:35;;;;;;;3.50;1.00;;;;;;;;;;5047830;28;20181;-75
2021/03/05 08:53:06;;;;;;;0.98;0.98;;;;;;;;;;5047305;28;20157;-75
2021/03/05 08:55:33;;;;;;;2.08;1.42;;;;;;;;;;5027198;28;20208;-75
2021/03/05 08:57:59;;;;;;;1.45;1.38;;;;;;;;;;5027451;28;20211;-75
2021/03/05 09:00:32;;;;;;;13.38;1.63;;;;;;;;;;5035082;28;20165;-75
2021/03/05 09:03:10;;;;;;;1.50;0.95;;;;;;;;;;5048597;28;20169;-75
2021/03/05 09:05:40;;;;;;;0.77;0.77;;;;;;;;;;5047649;28;20510;-74
2021/03/05 09:08:07;;;;;;;2.15;1.02;;;;;;;;;;5047046;28;20200;-75
2021/03/05 09:10:58;;;;;;;1.55;1.30;;;;;;;;;;5046135;28;20180;-75
2021/03/05 09:13:27;;;;;;;2.03;1.30;;;;;;;;;;5047230;28;20223;-75
2021/03/05 09:15:54;;;;;;;11.75;0.68;;;;;;;;;;5046264;28;20245;-75
2021/03/05 09:18:22;;;;;;;2.42;1.20;;;;;;;;;;5048320;28;20260;-75
2021/03/05 09:20:49;;;;;;;1.25;1.15;;;;;;;;;;5047197;28;20267;-74
2021/03/05 09:23:18;;;;;;;2.05;1.48;;;;;;;;;;5048154;28;20188;-75
2021/03/05 09:25:51;;;;;;;6.90;2.00;;;;;;;;;;5046877;28;20212;-75
2021/03/05 09:28:18;;;;;;;1.40;1.17;;;;;;;;;;5046275;28;20176;-76
2021/03/05 09:31:10;;;;;;;1.50;1.17;;;;;;;;;;5048129;28;20291;-75
2021/03/05 09:33:38;;;;;;;3.05;1.52;;;;;;;;;;5046255;28;20193;-75
2021/03/05 09:36:04;;;;;;;0.63;0.52;;;;;;;;;;5048474;28;20165;-76
2021/03/05 09:38:31;;;;;;;2.45;1.65;;;;;;;;;;5045850;28;20196;-76
2021/03/05 09:41:17;;;;;;;1.05;0.95;;;;;;;;;;5046979;28;20193;-76
2021/03/05 09:43:44;;;;;;;0.30;0.30;;;;;;;;;;5047317;28;20203;-77
2021/03/05 09:46:20;;;;;;;0.47;0.47;;;;;;;;;;5032048;28;20273;-76
2021/03/05 09:48:46;;;;;;;0.28;0.28;;;;;;;;;;5031080;28;20229;-76
2021/03/05 09:51:13;;;;;;;1.65;0.70;;;;;;;;;;5030400;28;20291;-75
2021/03/05 09:53:48;;;;;;;2.60;0.85;;;;;;;;;;5031879;28;20188;-74
2021/03/05 09:56:14;;;;;;;3.15;1.08;;;;;;;;;;5043392;28;20180;-74
2021/03/05 09:58:51;;;;;;;2.08;1.17;;;;;;;;;;5050989;28;20196;-74
2021/03/05 10:01:17;;;;;;;4.93;1.58;;;;;;;;;;5051481;28;20262;-74
2021/03/05 10:03:43;;;;;;;0.30;0.30;;;;;;;;;;5051706;28;20185;-74
2021/03/05 10:06:16;;;;;;;1.77;1.60;;;;;;;;;;5051404;28;20159;-73
2021/03/05 10:08:43;;;;;;;0.40;0.40;;;;;;;;;;5051999;28;20166;-74
2021/03/05 10:11:09;;;;;;;0.55;0.55;;;;;;;;;;5051443;28;20185;-74
2021/03/05 10:13:41;;;;;;;0.40;0.40;;;;;;;;;;5051130;28;20211;-74
2021/03/05 10:16:16;;;;;;;0.10;0.10;;;;;;;;;;5051537;28;20667;-74
2021/03/05 10:18:43;;;;;;;0.10;0.10;;;;;;;;;;5051373;28;20268;-74
2021/03/05 10:21:12;;;;;;;3.78;0.73;;;;;;;;;;5051280;28;20548;-74
2021/03/05 10:23:39;;;;;;;1.08;0.47;;;;;;;;;;5049903;28;20204;-72
2021/03/05 10:26:15;;;;;;;0.10;0.10;;;;;;;;;;5051363;28;20211;-74
2021/03/05 10:28:41;;;;;;;0.10;0.10;;;;;;;;;;5050766;28;20183;-74
2021/03/05 10:31:07;;;;;;;0.65;0.65;;;;;;;;;;5050474;28;20173;-74
2021/03/05 10:33:34;;;;;;;1.00;0.75;;;;;;;;;;5049481;28;20169;-74
2021/03/05 10:36:01;;;;;;;0.32;0.30;;;;;;;;;;5050040;28;20201;-73
2021/03/05 10:38:27;;;;;;;3.72;1.15;;;;;;;;;;5050644;28;20232;-76
2021/03/05 10:40:53;;;;;;;0.20;0.20;;;;;;;;;;5049757;28;20170;-76
2021/03/05 10:43:19;;;;;;;0.90;0.90;;;;;;;;;;5051166;28;20145;-75
2021/03/05 10:45:45;;;;;;;1.13;0.85;;;;;;;;;;5051140;28;20189;-75
2021/03/05 10:48:12;;;;;;;0.30;0.30;;;;;;;;;;5050791;28;20239;-75
2021/03/05 10:50:38;;;;;;;0.28;0.28;;;;;;;;;;5050938;28;20161;-75
2021/03/05 10:53:04;;;;;;;0.10;0.10;;;;;;;;;;5050912;28;20188;-75
2021/03/05 10:55:30;;;;;;;0.00;0.00;;;;;;;;;;5049444;28;20231;-75
2021/03/05 10:57:56;;;;;;;11.57;0.80;;;;;;;;;;5049438;28;20181;-75
2021/03/05 11:00:24;;;;;;;1.08;0.52;;;;;;;;;;5049617;28;20237;-76
2021/03/05 11:02:50;;;;;;;0.13;0.10;;;;;;;;;;5050818;28;20153;-76
2021/03/05 11:05:17;;;;;;;0.00;0.00;;;;;;;;;;5048536;28;20205;-74
2021/03/05 11:07:43;;;;;;;0.10;0.10;;;;;;;;;;5050693;28;20154;-75
2021/03/05 11:10:10;;;;;;;0.20;0.17;;;;;;;;;;5048702;28;20268;-74
2021/03/05 11:12:36;;;;;;;0.35;0.20;;;;;;;;;;5048581;28;20165;-74
2021/03/05 11:15:04;;;;;;;0.00;0.00;;;;;;;;;;5050571;28;20211;-75
2021/03/05 11:17:31;;;;;;;0.00;0.00;;;;;;;;;;5050753;28;20189;-74
2021/03/05 11:19:57;;;;;;;0.10;0.10;;;;;;;;;;5050457;28;20193;-74
2021/03/05 11:22:24;;;;;;;0.05;0.05;;;;;;;;;;5050410;28;20177;-74
2021/03/05 11:24:50;;;;;;;0.10;0.10;;;;;;;;;;5050487;28;20166;-74
2021/03/05 11:27:16;;;;;;;0.10;0.10;;;;;;;;;;5050124;28;20730;-74
2021/03/05 11:29:42;;;;;;;0.17;0.17;;;;;;;;;;5050117;28;20166;-74
2021/03/05 11:32:08;;;;;;;0.00;0.00;;;;;;;;;;5046655;28;20200;-74
2021/03/05 11:34:35;;;;;;;0.82;0.80;;;;;;;;;;5047957;28;20189;-75
2021/03/05 11:37:02;;;;;;;0.30;0.30;;;;;;;;;;5048089;28;20169;-74
2021/03/05 11:39:28;;;;;;;0.10;0.10;;;;;;;;;;5047702;28;20189;-75
2021/03/05 11:41:54;;;;;;;0.10;0.10;;;;;;;;;;5046704;28;20189;-75
2021/03/05 11:44:21;;;;;;;0.00;0.00;;;;;;;;;;5046634;28;20172;-74
2021/03/05 11:46:49;;;;;;;0.00;0.00;;;;;;;;;;5049201;28;20169;-74
2021/03/05 11:49:15;;;;;;;0.00;0.00;;;;;;;;;;5049599;28;20225;-74
2021/03/05 11:51:42;;;;;;;0.00;0.00;;;;;;;;;;5049678;28;20229;-74
2021/03/05 11:54:09;;;;;;;0.00;0.00;;;;;;;;;;5049704;28;20681;-74
2021/03/05 11:56:36;;;;;;;0.00;0.00;;;;;;;;;;5048467;28;20212;-74
2021/03/05 11:59:05;;;;;;;0.10;0.10;;;;;;;;;;5049501;28;20200;-74
2021/03/05 12:01:31;;;;;;;0.00;0.00;;;;;;;;;;5049605;28;20156;-74
2021/03/05 12:03:57;;;;;;;0.00;0.00;;;;;;;;;;5049698;28;20565;-74
2021/03/05 12:06:26;;;;;;;0.00;0.00;;;;;;;;;;5048751;28;20189;-74
2021/03/05 12:08:52;;;;;;;0.10;0.10;;;;;;;;;;5049217;28;20200;-74
2021/03/05 12:11:18;;;;;;;0.10;0.10;;;;;;;;;;5049168;28;20238;-74
2021/03/05 12:13:45;;;;;;;1.38;1.33;;;;;;;;;;5049101;28;20216;-74
2021/03/05 12:16:12;;;;;;;0.75;0.45;;;;;;;;;;5048843;28;20622;-74
2021/03/05 12:18:38;;;;;;;0.13;0.13;;;;;;;;;;5047689;28;20208;-74
2021/03/05 12:21:05;;;;;;;0.10;0.10;;;;;;;;;;5049321;28;20200;-74
2021/03/05 12:23:31;;;;;;;0.00;0.00;;;;;;;;;;5049158;28;20185;-74
2021/03/05 12:25:57;;;;;;;0.15;0.15;;;;;;;;;;5049047;28;20153;-74
2021/03/05 12:28:24;;;;;;;0.10;0.10;;;;;;;;;;5047706;28;20256;-74
2021/03/05 12:30:50;;;;;;;0.10;0.10;;;;;;;;;;5049021;28;20166;-74
2021/03/05 12:33:16;;;;;;;0.03;0.03;;;;;;;;;;5048955;28;20581;-74
2021/03/05 12:35:42;;;;;;;0.05;0.05;;;;;;;;;;5049182;28;20162;-75
2021/03/05 12:38:08;;;;;;;0.00;0.00;;;;;;;;;;5048637;28;20189;-74
2021/03/05 12:40:35;;;;;;;0.25;0.25;;;;;;;;;;5047585;28;20236;-74
2021/03/05 12:43:01;;;;;;;0.10;0.10;;;;;;;;;;5048926;28;20189;-75
2021/03/05 12:45:28;;;;;;;0.10;0.10;;;;;;;;;;5049036;28;20150;-74
2021/03/05 12:47:54;;;;;;;0.88;0.88;;;;;;;;;;5042374;28;20679;-75
2021/03/05 12:50:20;;;;;;;0.10;0.10;;;;;;;;;;5047616;28;20193;-74
2021/03/05 12:52:47;;;;;;;0.10;0.10;;;;;;;;;;5033657;28;20200;-74
2021/03/05 12:55:13;;;;;;;0.05;0.05;;;;;;;;;;5041026;28;20196;-74
2021/03/05 12:57:39;;;;;;;0.03;0.03;;;;;;;;;;5048127;28;20169;-74
2021/03/05 13:00:06;;;;;;;0.22;0.22;;;;;;;;;;5047915;28;20200;-75
2021/03/05 13:02:32;;;;;;;0.10;0.10;;;;;;;;;;5047658;28;20166;-74
2021/03/05 13:04:58;;;;;;;0.10;0.10;;;;;;;;;;5048477;28;20184;-74
2021/03/05 13:07:25;;;;;;;0.10;0.10;;;;;;;;;;5048321;28;20166;-74
2021/03/05 13:09:51;;;;;;;7.47;0.55;;;;;;;;;;5047277;28;20200;-75
2021/03/05 13:12:17;;;;;;;1.05;0.30;;;;;;;;;;5046070;28;20178;-74
2021/03/05 13:14:44;;;;;;;0.05;0.05;;;;;;;;;;5047257;28;20169;-73
2021/03/05 13:17:10;;;;;;;0.00;0.00;;;;;;;;;;5049976;28;20161;-74
2021/03/05 13:19:36;;;;;;;0.00;0.00;;;;;;;;;;5052156;28;20201;-74
2021/03/05 13:22:02;;;;;;;0.00;0.00;;;;;;;;;;5051583;28;20158;-74
2021/03/05 13:24:28;;;;;;;0.52;0.52;;;;;;;;;;5050695;28;20176;-74
2021/03/05 13:26:55;;;;;;;0.25;0.25;;;;;;;;;;5052398;28;20149;-74
2021/03/05 13:29:21;;;;;;;0.00;0.00;;;;;;;;;;5050858;28;20335;-74
2021/03/05 13:31:48;;;;;;;0.10;0.10;;;;;;;;;;5052047;28;20169;-73
2021/03/05 13:34:14;;;;;;;0.10;0.10;;;;;;;;;;5051478;28;20157;-74
2021/03/05 13:36:41;;;;;;;0.00;0.00;;;;;;;;;;5052104;28;20168;-74
2021/03/05 13:39:07;;;;;;;0.05;0.05;;;;;;;;;;5050859;28;20567;-73
2021/03/05 13:41:33;;;;;;;0.08;0.08;;;;;;;;;;5050424;28;20169;-74
2021/03/05 13:44:00;;;;;;;0.10;0.10;;;;;;;;;;5051214;28;20208;-75
2021/03/05 13:46:26;;;;;;;0.10;0.10;;;;;;;;;;5051711;28;20172;-74
2021/03/05 13:48:53;;;;;;;0.00;0.00;;;;;;;;;;5051643;28;20693;-73
2021/03/05 13:51:19;;;;;;;2.35;0.43;;;;;;;;;;5051915;28;20166;-73
2021/03/05 13:53:45;;;;;;;0.00;0.00;;;;;;;;;;5049654;28;20170;-73
2021/03/05 13:56:12;;;;;;;0.10;0.10;;;;;;;;;;5051472;28;20208;-74
2021/03/05 13:58:39;;;;;;;0.47;0.47;;;;;;;;;;5051526;28;20205;-75
2021/03/05 14:01:05;;;;;;;0.00;0.00;;;;;;;;;;5050346;28;20188;-74
2021/03/05 14:03:31;;;;;;;0.05;0.03;;;;;;;;;;5051619;28;20161;-74
2021/03/05 14:05:57;;;;;;;0.00;0.00;;;;;;;;;;5050798;28;20225;-75
2021/03/05 14:08:23;;;;;;;0.00;0.00;;;;;;;;;;5051676;28;20204;-74
2021/03/05 14:10:50;;;;;;;0.00;0.00;;;;;;;;;;5051734;28;20230;-75
2021/03/05 14:13:16;;;;;;;0.00;0.00;;;;;;;;;;5050308;28;20165;-75
2021/03/05 14:15:43;;;;;;;0.00;0.00;;;;;;;;;;5049391;28;20231;-75
2021/03/05 14:18:09;;;;;;;0.00;0.00;;;;;;;;;;5051248;28;20209;-74
2021/03/05 14:20:36;;;;;;;0.28;0.28;;;;;;;;;;5051083;28;20631;-74
2021/03/05 14:23:02;;;;;;;0.40;0.40;;;;;;;;;;5051555;28;20158;-74
2021/03/05 14:25:28;;;;;;;0.00;0.00;;;;;;;;;;5051340;28;20146;-75
2021/03/05 14:27:54;;;;;;;0.03;0.03;;;;;;;;;;5049879;28;20200;-74
2021/03/05 14:30:21;;;;;;;0.00;0.00;;;;;;;;;;5050895;28;20168;-74
2021/03/05 14:32:47;;;;;;;0.50;0.50;;;;;;;;;;5051212;28;20248;-74
2021/03/05 14:35:15;;;;;;;0.03;0.03;;;;;;;;;;5051469;28;20581;-74
2021/03/05 14:37:41;;;;;;;0.05;0.05;;;;;;;;;;5051369;28;20164;-74
2021/03/05 14:40:08;;;;;;;2.20;0.57;;;;;;;;;;5049807;28;20208;-74
2021/03/05 14:42:34;;;;;;;0.03;0.03;;;;;;;;;;5050963;28;20561;-74
2021/03/05 14:45:01;;;;;;;0.10;0.10;;;;;;;;;;5051185;28;20172;-74
2021/03/05 14:47:27;;;;;;;0.00;0.00;;;;;;;;;;5050539;28;20765;-74
2021/03/05 14:49:53;;;;;;;0.22;0.22;;;;;;;;;;5050938;28;20233;-74